Time;durP1;ratioP1;P1;durP2;ratioP2;P2;SDS_P1;SDS_P2;PMS_P1;PMS_P2;Temp;Humidity;BMP_temperature;BMP_pressure;BME280_temperature;BME280_humidity;BME280_pressure;Samples;Min_cycle;Max_cycle;Signal;HPM_P1;HPM_P2
2023/05/23 00:01:17;;;;;;;19.42;8.50;;;;;;;11.82;100.00;101800.38;4966503;28;20045;-74
2023/05/23 00:04:01;;;;;;;19.77;9.05;;;;;;;11.80;100.00;101800.44;4969492;28;20057;-74
2023/05/23 00:06:49;;;;;;;21.95;8.73;;;;;;;11.79;100.00;101793.41;4968978;28;20234;-74
2023/05/23 00:09:33;;;;;;;19.52;8.18;;;;;;;11.80;100.00;101791.59;4969444;28;20134;-76
2023/05/23 00:12:18;;;;;;;18.85;8.48;;;;;;;11.79;100.00;101809.31;4953764;28;20048;-76
2023/05/23 00:15:08;;;;;;;16.13;7.55;;;;;;;11.78;100.00;101812.03;4966572;28;20157;-75
2023/05/23 00:17:52;;;;;;;16.60;7.40;;;;;;;11.76;100.00;101812.06;4967632;28;20061;-74
2023/05/23 00:20:41;;;;;;;20.25;7.72;;;;;;;11.77;100.00;101819.09;4968505;28;20464;-75
2023/05/23 00:23:28;;;;;;;15.85;8.35;;;;;;;11.73;100.00;101817.50;4968459;28;20073;-75
2023/05/23 00:26:12;;;;;;;20.38;8.00;;;;;;;11.73;100.00;101811.31;4952283;28;20123;-75
2023/05/23 00:28:59;;;;;;;20.80;6.90;;;;;;;11.74;100.00;101829.84;4967665;28;20117;-75
2023/05/23 00:31:46;;;;;;;15.32;7.85;;;;;;;11.71;100.00;101814.00;4951611;28;20276;-74
2023/05/23 00:34:30;;;;;;;18.65;7.60;;;;;;;11.72;100.00;101821.03;4954697;28;20138;-74
2023/05/23 00:37:15;;;;;;;20.27;7.47;;;;;;;11.72;100.00;101828.16;4937070;28;20094;-76
2023/05/23 00:39:59;;;;;;;15.77;7.13;;;;;;;11.74;100.00;101824.53;4950818;28;20062;-74
2023/05/23 00:42:43;;;;;;;15.90;7.45;;;;;;;11.72;100.00;101821.03;4948774;28;20046;-75
2023/05/23 00:45:28;;;;;;;19.50;7.90;;;;;;;11.69;100.00;101821.16;4948890;28;20171;-75
2023/05/23 00:48:15;;;;;;;17.25;7.50;;;;;;;11.67;100.00;101823.00;4937944;28;20045;-75
2023/05/23 00:50:59;;;;;;;20.00;6.90;;;;;;;11.66;100.00;101829.25;4948453;28;20064;-74
2023/05/23 00:53:44;;;;;;;16.00;6.90;;;;;;;11.64;100.00;101833.72;4935857;28;20046;-76
2023/05/23 00:56:29;;;;;;;16.02;6.65;;;;;;;11.63;100.00;101831.97;4925690;28;20180;-76
2023/05/23 00:59:13;;;;;;;16.80;7.30;;;;;;;11.61;100.00;101839.97;4952454;28;20050;-75
2023/05/23 01:01:59;;;;;;;14.48;7.22;;;;;;;11.61;100.00;101829.38;4924750;28;20179;-74
2023/05/23 01:04:43;;;;;;;16.70;6.65;;;;;;;11.62;100.00;101847.06;4949419;28;20042;-76
2023/05/23 01:07:27;;;;;;;15.32;6.07;;;;;;;11.59;100.00;101852.44;4936646;28;20485;-75
2023/05/23 01:10:12;;;;;;;15.68;6.68;;;;;;;11.63;100.00;101853.19;4946284;28;20155;-73
2023/05/23 01:12:57;;;;;;;18.67;6.40;;;;;;;11.62;100.00;101840.88;4918891;28;20319;-75
2023/05/23 01:15:46;;;;;;;19.83;7.07;;;;;;;11.60;100.00;101848.88;4951337;28;20086;-75
2023/05/23 01:18:40;;;;;;;15.38;6.82;;;;;;;11.57;100.00;101848.97;4948136;28;20042;-75
2023/05/23 01:21:25;;;;;;;11.25;6.07;;;;;;;11.54;100.00;101847.28;4934755;28;20054;-74
2023/05/23 01:24:35;;;;;;;15.32;5.88;;;;;;;11.54;100.00;101859.69;4938723;28;20081;-75
2023/05/23 01:27:41;;;;;;;12.77;5.90;;;;;;;11.52;100.00;101862.41;4949995;28;20085;-77
2023/05/23 01:30:29;;;;;;;15.75;6.93;;;;;;;11.52;100.00;101862.41;4950151;28;20054;-75
2023/05/23 01:33:15;;;;;;;11.13;5.65;;;;;;;11.51;100.00;101857.13;4920461;28;20081;-73
2023/05/23 01:36:02;;;;;;;13.93;5.28;;;;;;;11.51;100.00;101862.44;4932829;28;20139;-74
2023/05/23 01:38:46;;;;;;;11.70;5.35;;;;;;;11.51;100.00;101863.28;4946638;28;20049;-76
2023/05/23 01:41:30;;;;;;;13.63;5.82;;;;;;;11.54;100.00;101867.63;4946889;28;20058;-76
2023/05/23 01:44:15;;;;;;;14.27;6.20;;;;;;;11.54;100.00;101863.22;4936247;28;20038;-74
2023/05/23 01:47:01;;;;;;;12.57;5.22;;;;;;;11.55;100.00;101862.28;4947917;28;20049;-74
2023/05/23 01:49:46;;;;;;;10.23;4.72;;;;;;;11.54;100.00;101863.22;4942450;28;20490;-74
2023/05/23 01:52:31;;;;;;;13.05;5.72;;;;;;;11.54;100.00;101870.28;4944308;28;20141;-73
2023/05/23 01:55:21;;;;;;;17.08;5.65;;;;;;;11.54;100.00;101868.50;4915539;28;20052;-75
2023/05/23 01:58:05;;;;;;;12.23;4.85;;;;;;;11.58;100.00;101884.31;4943665;28;20148;-74
2023/05/23 02:00:49;;;;;;;12.52;5.30;;;;;;;11.57;100.00;101891.41;4941543;28;21013;-75
2023/05/23 02:03:34;;;;;;;14.98;5.20;;;;;;;11.54;100.00;101891.50;4943801;28;20187;-75
2023/05/23 02:06:18;;;;;;;13.40;4.72;;;;;;;11.53;100.00;101901.25;4929139;28;20097;-74
2023/05/23 02:09:02;;;;;;;13.43;5.13;;;;;;;11.52;100.00;101903.94;4942938;28;20521;-77
2023/05/23 02:11:46;;;;;;;10.90;4.78;;;;;;;11.49;100.00;101907.56;4944302;28;20512;-75
2023/05/23 02:14:33;;;;;;;12.90;5.30;;;;;;;11.48;100.00;101905.84;4944148;28;20521;-76
2023/05/23 02:17:17;;;;;;;13.65;4.85;;;;;;;11.47;100.00;101908.53;4948246;28;20045;-74
2023/05/23 02:20:02;;;;;;;9.73;4.65;;;;;;;11.43;100.00;101910.41;4946575;28;20061;-75
2023/05/23 02:22:45;;;;;;;14.38;4.65;;;;;;;11.41;100.00;101912.25;4948935;28;20081;-75
2023/05/23 02:25:29;;;;;;;11.43;5.32;;;;;;;11.39;100.00;101911.44;4942942;28;20053;-74
2023/05/23 02:28:13;;;;;;;13.60;4.93;;;;;;;11.36;100.00;101915.06;4927266;28;20105;-74
2023/05/23 02:30:57;;;;;;;15.40;5.43;;;;;;;11.33;100.00;101914.28;4929304;28;20054;-76
2023/05/23 02:33:42;;;;;;;13.35;4.90;;;;;;;11.30;100.00;101930.28;4928889;28;20129;-75
2023/05/23 02:36:26;;;;;;;13.60;5.10;;;;;;;11.24;100.00;101910.13;4937749;28;21907;-74
2023/05/23 02:39:10;;;;;;;11.07;4.88;;;;;;;11.22;100.00;101914.63;4967871;28;22031;-75
2023/05/23 02:41:56;;;;;;;12.77;4.75;;;;;;;11.18;100.00;101926.22;4967809;28;20049;-75
2023/05/23 02:44:46;;;;;;;13.57;4.75;;;;;;;11.15;100.00;101927.19;4955493;28;20202;-74
2023/05/23 02:47:34;;;;;;;12.57;5.05;;;;;;;11.15;100.00;101911.28;4969097;28;21209;-75
2023/05/23 02:50:18;;;;;;;11.55;4.25;;;;;;;11.14;100.00;101925.47;4968324;28;20093;-74
2023/05/23 02:53:04;;;;;;;10.10;4.07;;;;;;;11.14;100.00;101930.75;4971255;28;20583;-76
2023/05/23 02:55:48;;;;;;;13.35;4.38;;;;;;;11.14;100.00;101930.75;4965931;28;20049;-74
2023/05/23 02:58:35;;;;;;;10.65;4.55;;;;;;;11.14;100.00;101933.41;4939649;28;20065;-75
2023/05/23 03:01:19;;;;;;;8.35;3.78;;;;;;;11.13;100.00;101935.19;4966527;28;20104;-75
2023/05/23 03:04:03;;;;;;;7.93;3.90;;;;;;;11.14;100.00;101933.41;4966516;28;20064;-75
2023/05/23 03:06:47;;;;;;;9.43;3.20;;;;;;;11.14;100.00;101939.59;4966283;28;20102;-76
2023/05/23 03:09:31;;;;;;;8.32;3.90;;;;;;;11.13;100.00;101950.22;4969348;28;20057;-76
2023/05/23 03:12:15;;;;;;;9.77;3.60;;;;;;;11.13;100.00;101939.63;4969619;28;20049;-75
2023/05/23 03:14:59;;;;;;;10.15;3.80;;;;;;;11.13;100.00;101934.31;4967802;28;20061;-75
2023/05/23 03:17:44;;;;;;;11.93;3.70;;;;;;;11.09;100.00;101937.97;4967576;28;20101;-76
2023/05/23 03:20:28;;;;;;;9.25;3.25;;;;;;;11.08;100.00;101941.53;4964314;28;20058;-74
2023/05/23 03:23:12;;;;;;;10.43;3.75;;;;;;;11.09;100.00;101945.91;4953756;28;20065;-74
2023/05/23 03:25:58;;;;;;;12.43;3.50;;;;;;;11.08;100.00;101955.69;4965923;28;20093;-74
2023/05/23 03:28:42;;;;;;;7.82;3.00;;;;;;;11.06;100.00;101960.13;4955564;28;20081;-75
2023/05/23 03:31:29;;;;;;;8.73;3.38;;;;;;;11.07;100.00;101967.16;4963004;28;20061;-75
2023/05/23 03:34:13;;;;;;;7.03;3.10;;;;;;;11.05;100.00;101952.25;4962882;28;20166;-74
2023/05/23 03:36:57;;;;;;;8.15;3.08;;;;;;;11.05;100.00;101954.91;4966489;28;20057;-74
2023/05/23 03:39:41;;;;;;;8.57;3.65;;;;;;;11.03;100.00;101964.66;4953790;28;20052;-74
2023/05/23 03:42:27;;;;;;;10.88;3.60;;;;;;;11.00;100.00;101961.19;4951724;28;20058;-74
2023/05/23 03:45:11;;;;;;;7.25;2.78;;;;;;;10.98;100.00;101978.94;4965378;28;20093;-76
2023/05/23 03:47:55;;;;;;;9.73;3.75;;;;;;;10.94;100.00;101971.97;4967721;28;20650;-75
2023/05/23 03:50:39;;;;;;;6.40;3.17;;;;;;;10.93;100.00;101972.00;4954242;28;20635;-75
2023/05/23 03:53:23;;;;;;;7.07;3.30;;;;;;;10.91;100.00;101985.31;4966314;28;20060;-74
2023/05/23 03:56:07;;;;;;;8.88;3.30;;;;;;;10.84;100.00;101987.25;4962222;28;20135;-74
2023/05/23 03:58:51;;;;;;;9.27;3.38;;;;;;;10.80;100.00;101990.03;4966405;28;20060;-74
2023/05/23 04:01:35;;;;;;;12.82;2.83;;;;;;;10.77;100.00;101996.28;4964043;28;20100;-75
2023/05/23 04:04:23;;;;;;;13.00;3.35;;;;;;;10.72;100.00;101983.19;4969179;28;20050;-74
2023/05/23 04:07:08;;;;;;;6.63;2.60;;;;;;;10.68;100.00;101993.91;4963178;28;20080;-75
2023/05/23 04:09:55;;;;;;;6.22;2.80;;;;;;;10.63;100.00;101996.69;4955066;28;20054;-75
2023/05/23 04:12:42;;;;;;;7.18;2.70;;;;;;;10.63;100.00;101991.38;4968150;28;20088;-76
2023/05/23 04:15:41;;;;;;;8.18;3.38;;;;;;;10.62;100.00;102002.88;4965801;28;20426;-76
2023/05/23 04:18:27;;;;;;;6.82;2.92;;;;;;;10.57;100.00;102015.38;4969198;28;20042;-76
2023/05/23 04:21:12;;;;;;;8.32;3.20;;;;;;;10.53;100.00;102000.47;4965304;28;20053;-75
2023/05/23 04:23:58;;;;;;;6.43;3.50;;;;;;;10.52;100.00;102027.88;4954791;28;20049;-75
2023/05/23 04:26:42;;;;;;;9.18;3.25;;;;;;;10.51;100.00;102012.91;4962882;28;20120;-74
2023/05/23 04:29:26;;;;;;;10.48;3.05;;;;;;;10.49;100.00;102022.63;4964851;28;20053;-76
2023/05/23 04:32:11;;;;;;;12.52;3.42;;;;;;;10.46;100.00;102023.59;4967114;28;20254;-75
2023/05/23 04:34:55;;;;;;;8.73;2.97;;;;;;;10.40;100.00;102032.53;4960998;28;20092;-75
2023/05/23 04:37:39;;;;;;;9.52;3.58;;;;;;;10.35;100.00;102036.22;4949855;28;20317;-74
2023/05/23 04:40:23;;;;;;;9.13;3.35;;;;;;;10.31;100.00;102032.78;4955641;28;20662;-75
2023/05/23 04:43:08;;;;;;;8.45;3.45;;;;;;;10.28;100.00;102046.06;4952994;28;20074;-75
2023/05/23 04:45:53;;;;;;;6.40;3.40;;;;;;;10.26;100.00;102039.97;4966801;28;20117;-74
2023/05/23 04:48:37;;;;;;;8.40;3.70;;;;;;;10.25;100.00;102049.66;4952067;28;20037;-75
2023/05/23 04:51:21;;;;;;;10.02;3.90;;;;;;;10.23;100.00;102043.56;4961092;28;20621;-74
2023/05/23 04:54:05;;;;;;;10.50;4.07;;;;;;;10.20;100.00;102051.56;4965735;28;20112;-74
2023/05/23 04:56:50;;;;;;;10.43;4.22;;;;;;;10.17;100.00;102056.94;4963745;28;20144;-75
2023/05/23 04:59:34;;;;;;;10.00;4.25;;;;;;;10.16;100.00;102061.38;4964672;28;20046;-77
2023/05/23 05:02:19;;;;;;;12.88;4.40;;;;;;;10.16;100.00;102073.72;4960557;28;20052;-75
2023/05/23 05:05:06;;;;;;;8.00;4.20;;;;;;;10.15;100.00;102069.34;4963153;28;20057;-75
2023/05/23 05:07:50;;;;;;;11.73;3.97;;;;;;;10.13;100.00;102085.25;4965947;28;21078;-76
2023/05/23 05:10:34;;;;;;;6.43;3.33;;;;;;;10.12;100.00;102072.94;4967440;28;20134;-75
2023/05/23 05:13:19;;;;;;;8.60;3.30;;;;;;;10.12;100.00;102083.50;4948521;28;21777;-77
2023/05/23 05:16:03;;;;;;;6.05;3.00;;;;;;;10.08;100.00;102086.28;4965436;28;20054;-74
2023/05/23 05:18:47;;;;;;;5.72;3.00;;;;;;;10.05;100.00;102084.56;4964159;28;20389;-76
2023/05/23 05:21:32;;;;;;;5.47;3.13;;;;;;;10.03;100.00;102097.81;4956432;28;21119;-73
2023/05/23 05:24:16;;;;;;;6.95;2.85;;;;;;;10.06;100.00;102088.94;4949385;28;20138;-75
2023/05/23 05:27:00;;;;;;;7.78;3.30;;;;;;;10.07;100.00;102101.25;4950247;28;20454;-73
2023/05/23 05:29:46;;;;;;;7.53;2.92;;;;;;;10.08;100.00;102108.28;4962218;28;20409;-77
2023/05/23 05:32:32;;;;;;;9.50;2.70;;;;;;;10.12;100.00;102098.50;4950816;28;20065;-75
2023/05/23 05:35:16;;;;;;;7.57;2.83;;;;;;;10.12;100.00;102112.63;4968706;28;20100;-75
2023/05/23 05:38:03;;;;;;;6.03;2.72;;;;;;;10.12;100.00;102109.09;4956294;28;20186;-75
2023/05/23 05:40:50;;;;;;;5.63;2.67;;;;;;;10.11;100.00;102118.81;4971284;28;20100;-75
2023/05/23 05:43:36;;;;;;;5.93;2.40;;;;;;;10.05;100.00;102117.19;4954506;28;20060;-77
2023/05/23 05:46:21;;;;;;;10.20;2.67;;;;;;;10.04;100.00;102111.94;4969386;28;20599;-75
2023/05/23 05:49:05;;;;;;;6.13;2.30;;;;;;;10.05;100.00;102134.84;4969396;28;20129;-73
2023/05/23 05:51:50;;;;;;;9.23;2.92;;;;;;;10.05;100.00;102140.13;4957183;28;21913;-74
2023/05/23 05:54:34;;;;;;;9.27;2.53;;;;;;;10.06;100.00;102139.22;4955502;28;20137;-75
2023/05/23 05:57:19;;;;;;;7.75;2.63;;;;;;;10.05;100.00;102141.00;4971154;28;20560;-76
2023/05/23 06:00:10;;;;;;;7.25;2.38;;;;;;;10.07;100.00;102143.59;4962454;28;20528;-75
2023/05/23 06:02:56;;;;;;;7.60;2.20;;;;;;;10.13;100.00;102134.66;4951726;28;20974;-74
2023/05/23 06:05:40;;;;;;;8.52;2.58;;;;;;;10.19;100.00;102145.13;4964330;28;20619;-75
2023/05/23 06:08:25;;;;;;;8.38;2.72;;;;;;;10.26;100.00;102148.47;4961475;28;20509;-74
2023/05/23 06:11:11;;;;;;;9.73;2.40;;;;;;;10.33;100.00;102163.31;4965292;28;20054;-74
2023/05/23 06:13:55;;;;;;;10.45;2.60;;;;;;;10.41;100.00;102164.00;4950985;28;20037;-77
2023/05/23 06:16:39;;;;;;;9.02;2.67;;;;;;;10.47;100.00;102165.69;4956989;28;20053;-76
2023/05/23 06:19:23;;;;;;;7.85;2.75;;;;;;;10.56;100.00;102159.25;4966629;28;20107;-76
2023/05/23 06:22:07;;;;;;;11.25;2.65;;;;;;;10.63;100.00;102171.47;4968041;28;20061;-75
2023/05/23 06:24:51;;;;;;;6.97;2.40;;;;;;;10.70;100.00;102165.13;4967633;28;20157;-77
2023/05/23 06:27:36;;;;;;;7.15;1.90;;;;;;;10.75;100.00;102172.06;4968749;28;20061;-78
2023/05/23 06:30:22;;;;;;;8.85;2.03;;;;;;;10.76;100.00;102166.72;4966478;28;20077;-76
2023/05/23 06:33:09;;;;;;;9.70;2.40;;;;;;;10.83;100.00;102180.69;4968250;28;20508;-77
2023/05/23 06:35:53;;;;;;;11.15;2.45;;;;;;;10.91;100.00;102176.09;4965949;28;20153;-75
2023/05/23 06:38:37;;;;;;;9.93;2.03;;;;;;;11.02;100.00;102177.56;4967241;28;20070;-76
2023/05/23 06:41:21;;;;;;;6.72;1.90;;;;;;;11.05;100.00;102169.56;4971981;28;20049;-76
2023/05/23 06:44:05;;;;;;;8.80;2.30;;;;;;;11.11;100.00;102194.09;4972586;28;20061;-75
2023/05/23 06:46:50;;;;;;;6.30;2.17;;;;;;;11.18;100.00;102180.69;4971847;28;20091;-75
2023/05/23 06:49:34;;;;;;;11.48;2.35;;;;;;;11.14;100.00;102195.81;4974091;28;20053;-74
2023/05/23 06:52:20;;;;;;;7.55;1.88;;;;;;;11.10;100.00;102191.47;4959064;28;20061;-75
2023/05/23 06:55:05;;;;;;;10.43;2.10;;;;;;;11.10;100.00;102199.44;4940916;28;20097;-75
2023/05/23 06:57:50;;;;;;;5.80;1.70;;;;;;;11.05;100.00;102194.25;4969111;28;20100;-75
2023/05/23 07:00:35;;;;;;;12.55;2.20;;;;;;;10.94;100.00;102189.25;4961779;28;20073;-79
2023/05/23 07:03:19;;;;;;;8.50;2.10;;;;;;;10.86;100.00;102205.31;4969128;28;20133;-75
2023/05/23 07:06:03;;;;;;;6.78;1.90;;;;;;;10.86;100.00;102199.16;4966382;28;20077;-77
2023/05/23 07:08:51;;;;;;;7.68;2.45;;;;;;;10.87;100.00;102203.56;4953658;28;20658;-76
2023/05/23 07:11:35;;;;;;;6.97;2.17;;;;;;;10.94;100.00;102205.13;4960255;28;20061;-77
2023/05/23 07:14:20;;;;;;;6.47;1.90;;;;;;;11.03;100.00;102212.00;4966163;28;20960;-77
2023/05/23 07:17:04;;;;;;;7.72;2.50;;;;;;;11.11;100.00;102212.66;4968013;28;20477;-74
2023/05/23 07:19:48;;;;;;;7.32;2.20;;;;;;;11.18;100.00;102208.06;4956545;28;20057;-78
2023/05/23 07:22:32;;;;;;;6.90;1.92;;;;;;;11.18;100.00;102223.09;4968393;28;20708;-77
2023/05/23 07:25:16;;;;;;;9.60;2.40;;;;;;;11.13;100.00;102226.72;4960035;28;20049;-75
2023/05/23 07:28:01;;;;;;;7.38;2.20;;;;;;;11.15;100.00;102218.75;4957056;28;20057;-75
2023/05/23 07:30:45;;;;;;;7.03;2.17;;;;;;;11.22;100.00;102214.16;4947684;28;20682;-75
2023/05/23 07:33:29;;;;;;;6.43;2.05;;;;;;;11.45;100.00;102204.72;4947928;28;22037;-76
2023/05/23 07:36:13;;;;;;;7.63;1.65;;;;;;;11.61;100.00;102224.59;4947530;28;21021;-74
2023/05/23 07:38:57;;;;;;;7.30;2.20;;;;;;;11.58;100.00;102218.50;4964085;28;20048;-77
2023/05/23 07:41:41;;;;;;;9.00;2.28;;;;;;;11.58;100.00;102216.72;4964274;28;20965;-76
2023/05/23 07:44:28;;;;;;;6.93;2.00;;;;;;;11.66;100.00;102221.81;4964574;28;20409;-77
2023/05/23 07:47:12;;;;;;;8.68;2.05;;;;;;;11.72;100.00;102229.59;4965196;28;20072;-75
2023/05/23 07:49:56;;;;;;;12.77;2.30;;;;;;;11.65;100.00;102228.91;4964119;28;20113;-77
2023/05/23 07:52:41;;;;;;;8.18;2.05;;;;;;;11.58;100.00;102229.09;4950014;28;20045;-74
2023/05/23 07:55:30;;;;;;;8.60;2.22;;;;;;;11.49;100.00;102228.44;4961337;28;20508;-75
2023/05/23 07:58:15;;;;;;;4.78;2.10;;;;;;;11.50;100.00;102235.50;4953967;28;20065;-76
2023/05/23 08:00:59;;;;;;;6.13;1.80;;;;;;;11.79;100.00;102227.66;4952519;28;20124;-74
2023/05/23 08:03:44;;;;;;;7.97;1.83;;;;;;;12.11;100.00;102254.19;4965470;28;20068;-75
2023/05/23 08:06:28;;;;;;;9.32;1.92;;;;;;;12.17;100.00;102241.63;4965354;28;20720;-74
2023/05/23 08:09:12;;;;;;;8.38;1.83;;;;;;;12.08;100.00;102242.75;4947851;28;20050;-76
2023/05/23 08:11:56;;;;;;;6.20;2.05;;;;;;;12.20;100.00;102252.13;4952699;28;20064;-77
2023/05/23 08:14:40;;;;;;;11.45;2.20;;;;;;;12.42;100.00;102251.47;4963253;28;20042;-76
2023/05/23 08:17:24;;;;;;;6.70;2.05;;;;;;;12.67;100.00;102239.22;4957864;28;20048;-77
2023/05/23 08:20:09;;;;;;;8.95;2.03;;;;;;;12.96;100.00;102245.38;4964876;28;20042;-78
2023/05/23 08:22:56;;;;;;;6.63;1.77;;;;;;;12.92;100.00;102243.75;4959600;28;20057;-76
2023/05/23 08:25:41;;;;;;;12.18;2.08;;;;;;;12.68;100.00;102243.63;4960063;28;20054;-77
2023/05/23 08:28:25;;;;;;;9.73;1.95;;;;;;;12.51;100.00;102247.69;4964324;28;20112;-78
2023/05/23 08:31:10;;;;;;;7.97;2.10;;;;;;;12.42;100.00;102250.63;4959279;28;20182;-77
2023/05/23 08:33:58;;;;;;;7.22;1.90;;;;;;;12.30;100.00;102251.84;4953872;28;20113;-76
2023/05/23 08:36:42;;;;;;;7.72;1.70;;;;;;;12.25;100.00;102246.69;4935839;28;20045;-77
2023/05/23 08:39:26;;;;;;;10.95;1.88;;;;;;;12.26;100.00;102253.72;4962662;28;20152;-76
2023/05/23 08:42:10;;;;;;;8.88;2.10;;;;;;;12.41;100.00;102255.06;4952669;28;21136;-78
2023/05/23 08:44:54;;;;;;;7.93;1.73;;;;;;;12.69;100.00;102246.22;4963296;28;20429;-77
2023/05/23 08:47:41;;;;;;;7.75;2.17;;;;;;;12.81;100.00;102260.88;4964970;28;20112;-77
2023/05/23 08:50:27;;;;;;;8.02;2.17;;;;;;;12.89;100.00;102260.66;4963385;28;21010;-77
2023/05/23 08:53:19;;;;;;;7.07;2.03;;;;;;;12.99;99.09;102254.13;4950123;28;20045;-76
2023/05/23 08:56:03;;;;;;;7.07;1.88;;;;;;;13.21;100.00;102263.16;4951276;28;20813;-77
2023/05/23 08:58:47;;;;;;;9.98;2.22;;;;;;;13.51;100.00;102261.25;4953600;28;20048;-78
2023/05/23 09:01:32;;;;;;;9.40;2.00;;;;;;;13.79;100.00;102272.72;4950212;28;20060;-76
2023/05/23 09:04:16;;;;;;;6.05;1.85;;;;;;;13.94;100.00;102276.63;4951574;28;20064;-77
2023/05/23 09:07:01;;;;;;;8.73;2.17;;;;;;;14.16;100.00;102287.31;4951335;28;20274;-78
2023/05/23 09:09:46;;;;;;;7.75;1.70;;;;;;;14.16;100.00;102273.16;4962285;28;20042;-77
2023/05/23 09:12:32;;;;;;;4.53;1.95;;;;;;;13.84;98.90;102281.41;4961729;28;20140;-77
2023/05/23 09:15:21;;;;;;;9.07;1.80;;;;;;;13.60;98.18;102288.44;4964214;28;20152;-78
2023/05/23 09:18:05;;;;;;;6.63;1.83;;;;;;;13.39;99.58;102299.75;4966011;28;20080;-77
2023/05/23 09:20:50;;;;;;;7.88;2.33;;;;;;;13.25;99.63;102300.22;4946304;28;20053;-78
2023/05/23 09:23:35;;;;;;;4.85;1.60;;;;;;;13.25;99.10;102297.56;4931973;28;20089;-77
2023/05/23 09:26:19;;;;;;;6.88;1.50;;;;;;;13.52;100.00;102299.38;4947716;28;20073;-78
2023/05/23 09:29:06;;;;;;;8.82;1.92;;;;;;;13.64;97.85;102301.63;4963353;28;20148;-78
2023/05/23 09:32:12;;;;;;;8.50;2.00;;;;;;;13.59;95.34;102295.59;4962399;28;20505;-79
2023/05/23 09:35:03;;;;;;;6.28;1.50;;;;;;;13.75;99.64;102300.34;4962328;28;20809;-77
2023/05/23 09:37:47;;;;;;;7.68;1.80;;;;;;;13.67;97.88;102300.66;4958470;28;20637;-76
2023/05/23 09:40:34;;;;;;;6.32;1.65;;;;;;;13.49;97.33;102303.00;4960849;28;20104;-76
2023/05/23 09:43:20;;;;;;;4.82;1.75;;;;;;;13.55;97.09;102301.91;4930656;28;20119;-75
2023/05/23 09:46:11;;;;;;;6.32;1.77;;;;;;;13.61;93.42;102301.72;4959108;28;20061;-73
2023/05/23 09:48:55;;;;;;;6.72;1.90;;;;;;;13.55;92.64;102307.25;4947391;28;20062;-75
2023/05/23 09:51:39;;;;;;;9.55;1.58;;;;;;;13.42;93.45;102318.28;4939140;28;20120;-76
2023/05/23 09:54:24;;;;;;;5.88;1.65;;;;;;;13.36;93.86;102310.53;4965819;28;20549;-75
2023/05/23 09:57:10;;;;;;;8.05;1.50;;;;;;;13.55;93.66;102296.59;4963700;28;20512;-77
2023/05/23 09:59:57;;;;;;;8.40;1.92;;;;;;;13.56;94.83;102314.28;4962122;28;20061;-77
2023/05/23 10:02:54;;;;;;;6.75;1.58;;;;;;;13.39;94.48;102317.50;4962305;28;20198;-77
2023/05/23 10:05:44;;;;;;;11.43;1.75;;;;;;;13.25;96.71;102300.22;4960603;28;21599;-75
2023/05/23 10:08:43;;;;;;;4.20;1.48;;;;;;;13.23;94.97;102311.84;4961556;28;20076;-75
2023/05/23 10:11:33;;;;;;;7.72;3.00;;;;;;;13.22;95.83;102299.47;4949224;28;20057;-76
2023/05/23 10:14:18;;;;;;;7.28;1.90;;;;;;;13.38;96.57;102297.16;4950936;28;20181;-75
2023/05/23 10:17:15;;;;;;;5.43;1.98;;;;;;;13.31;93.97;102308.00;4958423;28;20458;-76
2023/05/23 10:20:06;;;;;;;5.65;1.60;;;;;;;13.25;94.58;102318.00;4936475;28;20528;-75
2023/05/23 10:22:51;;;;;;;10.85;1.90;;;;;;;13.24;95.88;102310.94;4963202;28;20037;-76
2023/05/23 10:25:36;;;;;;;7.75;1.88;;;;;;;13.23;95.05;102310.06;4953640;28;20682;-76
2023/05/23 10:28:20;;;;;;;9.35;2.20;;;;;;;13.22;94.37;102302.13;4947754;28;20424;-75
2023/05/23 10:31:05;;;;;;;6.95;2.10;;;;;;;13.18;97.11;102320.84;4947139;28;20151;-77
2023/05/23 10:33:52;;;;;;;6.30;1.55;;;;;;;13.22;95.59;102320.72;4959871;28;20046;-75
2023/05/23 10:36:48;;;;;;;6.10;1.35;;;;;;;13.12;91.91;102331.69;4945396;28;20065;-75
2023/05/23 10:39:50;;;;;;;11.27;1.80;;;;;;;13.03;92.66;102332.00;4955627;28;20261;-74
2023/05/23 10:43:04;;;;;;;12.27;2.20;;;;;;;12.97;95.34;102327.72;4947308;28;20065;-76
2023/05/23 10:45:50;;;;;;;6.68;2.20;;;;;;;12.89;96.07;102341.28;4956056;28;20046;-74
2023/05/23 10:48:42;;;;;;;9.85;2.42;;;;;;;12.88;95.80;102331.56;4958372;28;20057;-76
2023/05/23 10:51:37;;;;;;;7.57;1.95;;;;;;;12.88;92.46;102342.19;4958980;28;20049;-75
2023/05/23 10:54:21;;;;;;;9.68;2.03;;;;;;;12.90;95.50;102337.69;4945589;28;20046;-77
2023/05/23 10:57:12;;;;;;;5.80;1.70;;;;;;;13.22;94.67;102349.97;4958530;28;20053;-77
2023/05/23 10:59:57;;;;;;;9.40;2.17;;;;;;;13.23;93.97;102333.97;4946708;28;20116;-76
2023/05/23 11:03:07;;;;;;;5.35;1.60;;;;;;;13.16;87.83;102340.44;4952237;28;20222;-76
2023/05/23 11:05:52;;;;;;;6.00;1.70;;;;;;;13.17;92.23;102345.69;4968495;28;20113;-76
2023/05/23 11:08:40;;;;;;;5.57;1.60;;;;;;;13.20;93.40;102343.84;4966638;28;20090;-76
2023/05/23 11:11:25;;;;;;;6.80;1.98;;;;;;;13.17;94.03;102351.03;4953271;28;20101;-76
2023/05/23 11:14:08;;;;;;;5.85;1.80;;;;;;;13.19;94.23;102356.31;4963672;28;20116;-75
2023/05/23 11:16:52;;;;;;;9.38;2.13;;;;;;;13.13;96.43;102349.38;4964474;28;20895;-76
2023/05/23 11:19:38;;;;;;;7.28;2.30;;;;;;;13.11;95.22;102353.00;4957964;28;20707;-77
2023/05/23 11:22:26;;;;;;;6.05;1.58;;;;;;;12.98;93.75;102356.06;4948357;28;20053;-78
2023/05/23 11:25:11;;;;;;;9.20;1.88;;;;;;;12.87;94.37;102360.84;4960325;28;20045;-76
2023/05/23 11:27:55;;;;;;;9.32;1.85;;;;;;;12.92;95.11;102356.25;4958489;28;20141;-76
2023/05/23 11:30:40;;;;;;;6.32;1.70;;;;;;;12.90;94.89;102364.28;4964614;28;20046;-76
2023/05/23 11:33:24;;;;;;;5.57;1.73;;;;;;;13.02;93.72;102363.00;4953223;28;20157;-75
2023/05/23 11:36:08;;;;;;;6.72;1.80;;;;;;;13.07;92.65;102349.56;4962666;28;20112;-74
2023/05/23 11:38:54;;;;;;;4.25;1.75;;;;;;;13.20;89.97;102352.72;4964077;28;20660;-76
2023/05/23 11:41:42;;;;;;;5.10;1.45;;;;;;;13.34;91.54;102349.59;4962214;28;21983;-77
2023/05/23 11:44:27;;;;;;;3.88;1.30;;;;;;;13.50;88.66;102365.09;4962034;28;20109;-76
2023/05/23 11:47:11;;;;;;;4.78;1.40;;;;;;;13.57;88.73;102358.63;4959530;28;20449;-76
2023/05/23 11:49:55;;;;;;;6.43;1.80;;;;;;;13.52;86.49;102371.22;4958209;28;20077;-78
2023/05/23 11:52:39;;;;;;;6.32;1.40;;;;;;;13.41;87.65;102366.22;4961581;28;20185;-76
2023/05/23 11:55:23;;;;;;;7.85;1.75;;;;;;;13.40;88.11;102365.34;4949697;28;20045;-76
2023/05/23 11:58:08;;;;;;;7.57;1.60;;;;;;;13.22;88.37;102374.81;4959234;28;20620;-75
2023/05/23 12:01:00;;;;;;;9.02;1.70;;;;;;;13.21;87.80;102365.09;4957381;28;20104;-77
2023/05/23 12:03:49;;;;;;;5.13;1.30;;;;;;;13.13;87.43;102365.31;4958752;28;20142;-76
2023/05/23 12:06:33;;;;;;;4.80;1.40;;;;;;;13.10;87.52;102368.09;4959243;28;20041;-76
2023/05/23 12:09:20;;;;;;;8.68;2.45;;;;;;;13.09;88.98;102382.31;4960964;28;20116;-73
2023/05/23 12:12:05;;;;;;;8.55;1.90;;;;;;;12.93;87.66;102373.06;4942591;28;20596;-74
2023/05/23 12:14:49;;;;;;;2.72;1.40;;;;;;;12.92;88.84;102387.28;4961336;28;20046;-76
2023/05/23 12:17:33;;;;;;;6.68;1.65;;;;;;;13.09;90.11;102371.69;4963505;28;20057;-75
2023/05/23 12:20:18;;;;;;;4.45;1.35;;;;;;;13.16;86.83;102373.22;4956287;28;20116;-75
2023/05/23 12:23:03;;;;;;;4.18;1.42;;;;;;;13.30;87.45;102379.88;4946508;28;20128;-76
2023/05/23 12:25:55;;;;;;;5.15;1.65;;;;;;;13.38;88.79;102388.47;4956072;28;20079;-75
2023/05/23 12:28:46;;;;;;;4.70;1.30;;;;;;;13.29;87.78;102386.13;4959592;28;20052;-75
2023/05/23 12:31:33;;;;;;;5.35;1.75;;;;;;;13.33;87.77;102389.56;4950804;28;20554;-76
2023/05/23 12:34:19;;;;;;;3.47;1.45;;;;;;;13.50;88.74;102378.38;4935031;28;20080;-76
2023/05/23 12:37:05;;;;;;;7.88;1.70;;;;;;;13.36;87.36;102390.31;4960277;28;20065;-75
2023/05/23 12:39:50;;;;;;;7.07;1.90;;;;;;;13.28;86.82;102392.34;4961804;28;20100;-76
2023/05/23 12:42:55;;;;;;;6.97;1.52;;;;;;;13.42;85.20;102368.81;4959621;28;20599;-75